sensor_id;sensor_type;location;lat;lon;timestamp;P1;durP1;ratioP1;P2;durP2;ratioP2
23745;SDS011;12053;48.878;9.632;2022-08-23T00:02:11;2.83;;;2.25;;
23745;SDS011;12053;48.878;9.632;2022-08-23T00:04:49;3.35;;;1.92;;
23745;SDS011;12053;48.878;9.632;2022-08-23T00:07:33;4.30;;;2.53;;
23745;SDS011;12053;48.878;9.632;2022-08-23T00:10:04;3.42;;;2.38;;
23745;SDS011;12053;48.878;9.632;2022-08-23T00:12:31;3.45;;;2.20;;
23745;SDS011;12053;48.878;9.632;2022-08-23T00:14:58;5.18;;;2.42;;
23745;SDS011;12053;48.878;9.632;2022-08-23T00:17:26;3.50;;;1.88;;
23745;SDS011;12053;48.878;9.632;2022-08-23T00:20:03;2.85;;;2.28;;
23745;SDS011;12053;48.878;9.632;2022-08-23T00:22:31;3.50;;;2.10;;
23745;SDS011;12053;48.878;9.632;2022-08-23T00:24:59;5.70;;;2.33;;
23745;SDS011;12053;48.878;9.632;2022-08-23T00:27:26;3.40;;;2.42;;
23745;SDS011;12053;48.878;9.632;2022-08-23T00:29:54;3.65;;;1.83;;
23745;SDS011;12053;48.878;9.632;2022-08-23T00:32:25;3.72;;;2.28;;
23745;SDS011;12053;48.878;9.632;2022-08-23T00:34:53;5.20;;;2.05;;
23745;SDS011;12053;48.878;9.632;2022-08-23T00:37:20;4.47;;;2.10;;
23745;SDS011;12053;48.878;9.632;2022-08-23T00:39:48;2.40;;;2.20;;
23745;SDS011;12053;48.878;9.632;2022-08-23T00:42:24;7.55;;;2.67;;
23745;SDS011;12053;48.878;9.632;2022-08-23T00:45:11;8.32;;;2.60;;
23745;SDS011;12053;48.878;9.632;2022-08-23T00:47:58;3.47;;;2.28;;
23745;SDS011;12053;48.878;9.632;2022-08-23T00:50:33;4.70;;;3.00;;
23745;SDS011;12053;48.878;9.632;2022-08-23T00:53:07;3.60;;;2.33;;
23745;SDS011;12053;48.878;9.632;2022-08-23T00:55:38;3.83;;;2.75;;
23745;SDS011;12053;48.878;9.632;2022-08-23T00:58:06;3.17;;;2.15;;
23745;SDS011;12053;48.878;9.632;2022-08-23T01:00:34;3.17;;;2.30;;
23745;SDS011;12053;48.878;9.632;2022-08-23T01:03:02;4.82;;;2.40;;
23745;SDS011;12053;48.878;9.632;2022-08-23T01:05:35;2.33;;;2.10;;
23745;SDS011;12053;48.878;9.632;2022-08-23T01:08:09;3.92;;;2.47;;
23745;SDS011;12053;48.878;9.632;2022-08-23T01:10:41;2.90;;;2.20;;
23745;SDS011;12053;48.878;9.632;2022-08-23T01:13:16;5.13;;;2.17;;
23745;SDS011;12053;48.878;9.632;2022-08-23T01:15:46;2.92;;;2.28;;
23745;SDS011;12053;48.878;9.632;2022-08-23T01:18:16;3.45;;;2.40;;
23745;SDS011;12053;48.878;9.632;2022-08-23T01:21:04;3.17;;;2.45;;
23745;SDS011;12053;48.878;9.632;2022-08-23T01:26:05;3.35;;;2.20;;
23745;SDS011;12053;48.878;9.632;2022-08-23T01:28:33;5.32;;;2.47;;
23745;SDS011;12053;48.878;9.632;2022-08-23T01:31:00;3.63;;;2.50;;
23745;SDS011;12053;48.878;9.632;2022-08-23T01:33:31;2.55;;;2.33;;
23745;SDS011;12053;48.878;9.632;2022-08-23T01:35:59;5.93;;;2.78;;
23745;SDS011;12053;48.878;9.632;2022-08-23T01:38:29;4.78;;;2.35;;
23745;SDS011;12053;48.878;9.632;2022-08-23T01:40:58;4.35;;;2.20;;
23745;SDS011;12053;48.878;9.632;2022-08-23T01:43:25;2.50;;;2.25;;
23745;SDS011;12053;48.878;9.632;2022-08-23T01:45:53;5.18;;;2.50;;
23745;SDS011;12053;48.878;9.632;2022-08-23T01:48:21;3.67;;;2.50;;
23745;SDS011;12053;48.878;9.632;2022-08-23T01:50:48;3.05;;;2.33;;
23745;SDS011;12053;48.878;9.632;2022-08-23T01:53:15;2.63;;;2.17;;
23745;SDS011;12053;48.878;9.632;2022-08-23T01:55:42;4.55;;;2.55;;
23745;SDS011;12053;48.878;9.632;2022-08-23T01:58:10;2.45;;;2.20;;
23745;SDS011;12053;48.878;9.632;2022-08-23T02:00:39;3.15;;;2.20;;
23745;SDS011;12053;48.878;9.632;2022-08-23T02:03:07;3.20;;;2.30;;
23745;SDS011;12053;48.878;9.632;2022-08-23T02:05:39;2.95;;;2.35;;
23745;SDS011;12053;48.878;9.632;2022-08-23T02:08:07;5.07;;;2.30;;
23745;SDS011;12053;48.878;9.632;2022-08-23T02:10:53;4.90;;;2.53;;
23745;SDS011;12053;48.878;9.632;2022-08-23T02:13:20;2.40;;;2.20;;
23745;SDS011;12053;48.878;9.632;2022-08-23T02:15:48;2.88;;;2.30;;
23745;SDS011;12053;48.878;9.632;2022-08-23T02:18:19;3.25;;;2.50;;
23745;SDS011;12053;48.878;9.632;2022-08-23T02:20:48;2.58;;;2.33;;
23745;SDS011;12053;48.878;9.632;2022-08-23T02:23:15;3.45;;;2.67;;
23745;SDS011;12053;48.878;9.632;2022-08-23T02:25:42;3.00;;;2.35;;
23745;SDS011;12053;48.878;9.632;2022-08-23T02:28:10;3.53;;;2.30;;
23745;SDS011;12053;48.878;9.632;2022-08-23T02:30:37;2.60;;;2.40;;
23745;SDS011;12053;48.878;9.632;2022-08-23T02:33:05;6.50;;;2.42;;
23745;SDS011;12053;48.878;9.632;2022-08-23T02:35:32;3.42;;;2.40;;
23745;SDS011;12053;48.878;9.632;2022-08-23T02:38:03;2.88;;;2.58;;
23745;SDS011;12053;48.878;9.632;2022-08-23T02:40:30;4.53;;;2.47;;
23745;SDS011;12053;48.878;9.632;2022-08-23T02:42:57;3.95;;;2.60;;
23745;SDS011;12053;48.878;9.632;2022-08-23T02:45:25;3.22;;;2.53;;
23745;SDS011;12053;48.878;9.632;2022-08-23T02:47:53;5.60;;;2.55;;
23745;SDS011;12053;48.878;9.632;2022-08-23T02:50:20;4.45;;;2.63;;
23745;SDS011;12053;48.878;9.632;2022-08-23T02:52:47;3.78;;;2.72;;
23745;SDS011;12053;48.878;9.632;2022-08-23T02:55:15;2.78;;;2.50;;
23745;SDS011;12053;48.878;9.632;2022-08-23T02:57:42;3.63;;;2.75;;
23745;SDS011;12053;48.878;9.632;2022-08-23T03:00:10;3.78;;;2.33;;
23745;SDS011;12053;48.878;9.632;2022-08-23T03:02:38;3.50;;;2.50;;
23745;SDS011;12053;48.878;9.632;2022-08-23T03:05:05;3.15;;;2.78;;
23745;SDS011;12053;48.878;9.632;2022-08-23T03:07:33;4.72;;;3.65;;
23745;SDS011;12053;48.878;9.632;2022-08-23T03:10:01;7.90;;;3.38;;
23745;SDS011;12053;48.878;9.632;2022-08-23T03:12:29;5.15;;;2.67;;
23745;SDS011;12053;48.878;9.632;2022-08-23T03:14:56;4.40;;;2.58;;
23745;SDS011;12053;48.878;9.632;2022-08-23T03:17:24;4.95;;;2.60;;
23745;SDS011;12053;48.878;9.632;2022-08-23T03:19:51;4.13;;;2.55;;
23745;SDS011;12053;48.878;9.632;2022-08-23T03:22:19;4.25;;;2.60;;
23745;SDS011;12053;48.878;9.632;2022-08-23T03:24:48;3.35;;;2.63;;
23745;SDS011;12053;48.878;9.632;2022-08-23T03:27:15;2.95;;;2.72;;
23745;SDS011;12053;48.878;9.632;2022-08-23T03:29:42;3.45;;;2.60;;
23745;SDS011;12053;48.878;9.632;2022-08-23T03:32:09;4.70;;;2.97;;
23745;SDS011;12053;48.878;9.632;2022-08-23T03:34:40;3.63;;;2.65;;
23745;SDS011;12053;48.878;9.632;2022-08-23T03:37:07;2.78;;;2.53;;
23745;SDS011;12053;48.878;9.632;2022-08-23T03:39:35;3.08;;;2.65;;
23745;SDS011;12053;48.878;9.632;2022-08-23T03:42:02;8.30;;;3.00;;
23745;SDS011;12053;48.878;9.632;2022-08-23T03:44:29;4.18;;;2.75;;
23745;SDS011;12053;48.878;9.632;2022-08-23T03:46:56;6.90;;;2.90;;
23745;SDS011;12053;48.878;9.632;2022-08-23T03:49:24;3.15;;;2.72;;
23745;SDS011;12053;48.878;9.632;2022-08-23T03:51:51;3.45;;;3.15;;
23745;SDS011;12053;48.878;9.632;2022-08-23T03:54:18;4.13;;;2.70;;
23745;SDS011;12053;48.878;9.632;2022-08-23T03:56:52;4.70;;;2.92;;
23745;SDS011;12053;48.878;9.632;2022-08-23T03:59:20;8.87;;;3.40;;
23745;SDS011;12053;48.878;9.632;2022-08-23T04:01:47;3.78;;;3.03;;
23745;SDS011;12053;48.878;9.632;2022-08-23T04:04:14;4.65;;;2.97;;
23745;SDS011;12053;48.878;9.632;2022-08-23T04:06:42;4.43;;;3.40;;
23745;SDS011;12053;48.878;9.632;2022-08-23T04:09:10;3.10;;;2.75;;
23745;SDS011;12053;48.878;9.632;2022-08-23T04:11:38;3.25;;;2.70;;
23745;SDS011;12053;48.878;9.632;2022-08-23T04:14:06;3.58;;;2.72;;
23745;SDS011;12053;48.878;9.632;2022-08-23T04:16:33;3.50;;;3.20;;
23745;SDS011;12053;48.878;9.632;2022-08-23T04:19:04;3.45;;;2.63;;
23745;SDS011;12053;48.878;9.632;2022-08-23T04:21:35;3.15;;;2.85;;
23745;SDS011;12053;48.878;9.632;2022-08-23T04:24:02;4.72;;;2.90;;
23745;SDS011;12053;48.878;9.632;2022-08-23T04:26:30;3.20;;;2.90;;
23745;SDS011;12053;48.878;9.632;2022-08-23T04:28:58;5.32;;;3.40;;
23745;SDS011;12053;48.878;9.632;2022-08-23T04:31:26;3.55;;;2.90;;
23745;SDS011;12053;48.878;9.632;2022-08-23T04:33:59;4.00;;;3.00;;
23745;SDS011;12053;48.878;9.632;2022-08-23T04:36:30;3.42;;;3.13;;
23745;SDS011;12053;48.878;9.632;2022-08-23T04:38:59;5.40;;;3.65;;
23745;SDS011;12053;48.878;9.632;2022-08-23T04:41:27;4.72;;;3.75;;
23745;SDS011;12053;48.878;9.632;2022-08-23T04:44:12;5.25;;;3.38;;
23745;SDS011;12053;48.878;9.632;2022-08-23T04:46:40;5.63;;;3.80;;
23745;SDS011;12053;48.878;9.632;2022-08-23T04:49:10;5.38;;;3.60;;
23745;SDS011;12053;48.878;9.632;2022-08-23T04:51:37;4.28;;;2.92;;
23745;SDS011;12053;48.878;9.632;2022-08-23T04:54:05;5.03;;;3.30;;
23745;SDS011;12053;48.878;9.632;2022-08-23T04:56:33;2.95;;;2.70;;
23745;SDS011;12053;48.878;9.632;2022-08-23T04:59:00;5.45;;;3.00;;
23745;SDS011;12053;48.878;9.632;2022-08-23T05:01:28;5.60;;;3.15;;
23745;SDS011;12053;48.878;9.632;2022-08-23T05:03:55;5.68;;;3.40;;
23745;SDS011;12053;48.878;9.632;2022-08-23T05:06:22;4.95;;;2.88;;
23745;SDS011;12053;48.878;9.632;2022-08-23T05:08:51;4.55;;;3.50;;
23745;SDS011;12053;48.878;9.632;2022-08-23T05:11:18;3.22;;;2.80;;
23745;SDS011;12053;48.878;9.632;2022-08-23T05:13:46;4.43;;;3.55;;
23745;SDS011;12053;48.878;9.632;2022-08-23T05:16:13;3.03;;;2.72;;
23745;SDS011;12053;48.878;9.632;2022-08-23T05:18:41;3.42;;;3.08;;
23745;SDS011;12053;48.878;9.632;2022-08-23T05:21:12;5.60;;;3.38;;
23745;SDS011;12053;48.878;9.632;2022-08-23T05:23:39;4.95;;;3.42;;
23745;SDS011;12053;48.878;9.632;2022-08-23T05:26:07;5.90;;;2.80;;
23745;SDS011;12053;48.878;9.632;2022-08-23T05:28:35;6.00;;;3.45;;
23745;SDS011;12053;48.878;9.632;2022-08-23T05:31:12;4.18;;;2.80;;
23745;SDS011;12053;48.878;9.632;2022-08-23T05:33:40;4.38;;;2.70;;
23745;SDS011;12053;48.878;9.632;2022-08-23T05:36:08;7.45;;;3.15;;
23745;SDS011;12053;48.878;9.632;2022-08-23T05:38:36;4.63;;;2.70;;
23745;SDS011;12053;48.878;9.632;2022-08-23T05:41:03;3.85;;;2.90;;
23745;SDS011;12053;48.878;9.632;2022-08-23T05:43:33;8.88;;;4.22;;
23745;SDS011;12053;48.878;9.632;2022-08-23T05:46:05;4.95;;;3.25;;
23745;SDS011;12053;48.878;9.632;2022-08-23T05:48:38;6.45;;;3.33;;
23745;SDS011;12053;48.878;9.632;2022-08-23T05:51:10;5.32;;;2.90;;
23745;SDS011;12053;48.878;9.632;2022-08-23T05:53:38;3.33;;;3.03;;
23745;SDS011;12053;48.878;9.632;2022-08-23T05:56:09;4.68;;;2.70;;
23745;SDS011;12053;48.878;9.632;2022-08-23T05:58:37;4.82;;;2.40;;
23745;SDS011;12053;48.878;9.632;2022-08-23T06:01:05;3.53;;;3.00;;
23745;SDS011;12053;48.878;9.632;2022-08-23T06:03:32;3.42;;;2.80;;
23745;SDS011;12053;48.878;9.632;2022-08-23T06:06:00;3.50;;;2.90;;
23745;SDS011;12053;48.878;9.632;2022-08-23T06:08:27;4.28;;;2.70;;
23745;SDS011;12053;48.878;9.632;2022-08-23T06:10:58;3.13;;;2.30;;
23745;SDS011;12053;48.878;9.632;2022-08-23T06:13:25;4.32;;;2.60;;
23745;SDS011;12053;48.878;9.632;2022-08-23T06:15:53;2.90;;;2.40;;
23745;SDS011;12053;48.878;9.632;2022-08-23T06:18:20;2.28;;;1.92;;
23745;SDS011;12053;48.878;9.632;2022-08-23T06:20:47;4.82;;;2.88;;
23745;SDS011;12053;48.878;9.632;2022-08-23T06:23:15;4.82;;;2.00;;
23745;SDS011;12053;48.878;9.632;2022-08-23T06:25:42;3.47;;;2.03;;
23745;SDS011;12053;48.878;9.632;2022-08-23T06:28:10;3.22;;;1.90;;
23745;SDS011;12053;48.878;9.632;2022-08-23T06:30:40;5.80;;;2.35;;
23745;SDS011;12053;48.878;9.632;2022-08-23T06:33:07;2.30;;;1.92;;
23745;SDS011;12053;48.878;9.632;2022-08-23T06:35:34;4.63;;;2.10;;
23745;SDS011;12053;48.878;9.632;2022-08-23T06:38:04;3.05;;;1.50;;
23745;SDS011;12053;48.878;9.632;2022-08-23T06:40:32;4.53;;;1.92;;
23745;SDS011;12053;48.878;9.632;2022-08-23T06:43:00;2.60;;;1.90;;
23745;SDS011;12053;48.878;9.632;2022-08-23T06:45:29;3.28;;;1.70;;
23745;SDS011;12053;48.878;9.632;2022-08-23T06:48:00;4.18;;;1.73;;
23745;SDS011;12053;48.878;9.632;2022-08-23T06:50:28;2.47;;;1.90;;
23745;SDS011;12053;48.878;9.632;2022-08-23T06:52:57;4.10;;;1.95;;
23745;SDS011;12053;48.878;9.632;2022-08-23T06:55:25;2.83;;;1.70;;
23745;SDS011;12053;48.878;9.632;2022-08-23T06:57:52;2.50;;;1.70;;
23745;SDS011;12053;48.878;9.632;2022-08-23T07:00:19;4.85;;;1.90;;
23745;SDS011;12053;48.878;9.632;2022-08-23T07:02:47;1.80;;;1.70;;
23745;SDS011;12053;48.878;9.632;2022-08-23T07:05:15;2.55;;;1.80;;
23745;SDS011;12053;48.878;9.632;2022-08-23T07:07:42;7.22;;;1.80;;
23745;SDS011;12053;48.878;9.632;2022-08-23T07:10:10;2.90;;;1.80;;
23745;SDS011;12053;48.878;9.632;2022-08-23T07:12:40;2.22;;;1.42;;
23745;SDS011;12053;48.878;9.632;2022-08-23T07:15:09;2.63;;;1.98;;
23745;SDS011;12053;48.878;9.632;2022-08-23T07:17:36;7.63;;;1.90;;
23745;SDS011;12053;48.878;9.632;2022-08-23T07:20:03;7.22;;;2.08;;
23745;SDS011;12053;48.878;9.632;2022-08-23T07:22:30;5.90;;;1.88;;
23745;SDS011;12053;48.878;9.632;2022-08-23T07:24:58;6.40;;;2.08;;
23745;SDS011;12053;48.878;9.632;2022-08-23T07:27:25;5.68;;;2.08;;
23745;SDS011;12053;48.878;9.632;2022-08-23T07:29:52;1.63;;;1.35;;
23745;SDS011;12053;48.878;9.632;2022-08-23T07:32:19;4.68;;;1.77;;
23745;SDS011;12053;48.878;9.632;2022-08-23T07:34:47;3.90;;;1.80;;
23745;SDS011;12053;48.878;9.632;2022-08-23T07:37:14;4.93;;;1.90;;
23745;SDS011;12053;48.878;9.632;2022-08-23T07:39:42;2.15;;;1.40;;
23745;SDS011;12053;48.878;9.632;2022-08-23T07:42:10;4.43;;;1.63;;
23745;SDS011;12053;48.878;9.632;2022-08-23T07:44:49;2.40;;;1.95;;
23745;SDS011;12053;48.878;9.632;2022-08-23T07:47:18;5.45;;;1.70;;
23745;SDS011;12053;48.878;9.632;2022-08-23T07:49:45;4.13;;;1.40;;
23745;SDS011;12053;48.878;9.632;2022-08-23T07:52:12;2.45;;;1.88;;
23745;SDS011;12053;48.878;9.632;2022-08-23T07:54:40;5.00;;;1.70;;
23745;SDS011;12053;48.878;9.632;2022-08-23T07:57:14;3.45;;;1.85;;
23745;SDS011;12053;48.878;9.632;2022-08-23T07:59:41;5.03;;;1.63;;
23745;SDS011;12053;48.878;9.632;2022-08-23T08:02:08;5.72;;;1.60;;
23745;SDS011;12053;48.878;9.632;2022-08-23T08:04:36;4.45;;;1.58;;
23745;SDS011;12053;48.878;9.632;2022-08-23T08:07:04;3.28;;;1.40;;
23745;SDS011;12053;48.878;9.632;2022-08-23T08:09:44;4.10;;;1.55;;
23745;SDS011;12053;48.878;9.632;2022-08-23T08:12:12;3.50;;;1.50;;
23745;SDS011;12053;48.878;9.632;2022-08-23T08:14:40;6.25;;;1.70;;
23745;SDS011;12053;48.878;9.632;2022-08-23T08:17:10;5.47;;;1.55;;
23745;SDS011;12053;48.878;9.632;2022-08-23T08:19:38;3.67;;;1.58;;
23745;SDS011;12053;48.878;9.632;2022-08-23T08:22:06;3.40;;;1.95;;
23745;SDS011;12053;48.878;9.632;2022-08-23T08:24:34;5.43;;;1.90;;
23745;SDS011;12053;48.878;9.632;2022-08-23T08:27:01;3.72;;;1.70;;
23745;SDS011;12053;48.878;9.632;2022-08-23T08:29:28;2.63;;;1.50;;
23745;SDS011;12053;48.878;9.632;2022-08-23T08:31:55;4.78;;;2.00;;
23745;SDS011;12053;48.878;9.632;2022-08-23T08:34:22;4.05;;;1.70;;
23745;SDS011;12053;48.878;9.632;2022-08-23T08:36:50;4.80;;;1.80;;
23745;SDS011;12053;48.878;9.632;2022-08-23T08:39:21;3.90;;;2.00;;
23745;SDS011;12053;48.878;9.632;2022-08-23T08:44:33;6.35;;;1.75;;
23745;SDS011;12053;48.878;9.632;2022-08-23T08:47:05;3.80;;;1.95;;
23745;SDS011;12053;48.878;9.632;2022-08-23T08:49:38;3.03;;;1.80;;
23745;SDS011;12053;48.878;9.632;2022-08-23T08:54:37;3.63;;;1.80;;
23745;SDS011;12053;48.878;9.632;2022-08-23T08:57:11;2.15;;;1.65;;
23745;SDS011;12053;48.878;9.632;2022-08-23T08:59:59;6.22;;;1.75;;
23745;SDS011;12053;48.878;9.632;2022-08-23T09:02:29;3.25;;;1.60;;
23745;SDS011;12053;48.878;9.632;2022-08-23T09:04:59;3.05;;;1.80;;
23745;SDS011;12053;48.878;9.632;2022-08-23T09:07:29;2.38;;;1.63;;
23745;SDS011;12053;48.878;9.632;2022-08-23T09:10:14;4.50;;;1.60;;
23745;SDS011;12053;48.878;9.632;2022-08-23T09:15:41;5.22;;;1.95;;
23745;SDS011;12053;48.878;9.632;2022-08-23T09:18:13;2.75;;;1.77;;
23745;SDS011;12053;48.878;9.632;2022-08-23T09:20:42;5.55;;;1.85;;
23745;SDS011;12053;48.878;9.632;2022-08-23T09:23:12;2.55;;;1.70;;
23745;SDS011;12053;48.878;9.632;2022-08-23T09:25:49;2.97;;;1.70;;
23745;SDS011;12053;48.878;9.632;2022-08-23T09:28:16;4.00;;;1.80;;
23745;SDS011;12053;48.878;9.632;2022-08-23T09:30:48;3.10;;;1.80;;
23745;SDS011;12053;48.878;9.632;2022-08-23T09:33:17;3.38;;;2.05;;
23745;SDS011;12053;48.878;9.632;2022-08-23T09:38:53;3.17;;;1.70;;
23745;SDS011;12053;48.878;9.632;2022-08-23T09:41:44;5.07;;;1.85;;
23745;SDS011;12053;48.878;9.632;2022-08-23T09:47:08;5.78;;;1.90;;
23745;SDS011;12053;48.878;9.632;2022-08-23T09:49:37;4.15;;;1.77;;
23745;SDS011;12053;48.878;9.632;2022-08-23T09:52:24;5.82;;;1.75;;
23745;SDS011;12053;48.878;9.632;2022-08-23T09:54:53;4.40;;;2.15;;
23745;SDS011;12053;48.878;9.632;2022-08-23T09:57:25;3.97;;;1.60;;
23745;SDS011;12053;48.878;9.632;2022-08-23T09:59:53;3.33;;;1.90;;
23745;SDS011;12053;48.878;9.632;2022-08-23T10:07:25;3.15;;;2.03;;
23745;SDS011;12053;48.878;9.632;2022-08-23T10:09:52;4.32;;;1.75;;
23745;SDS011;12053;48.878;9.632;2022-08-23T10:12:20;6.00;;;1.73;;
23745;SDS011;12053;48.878;9.632;2022-08-23T10:14:48;5.28;;;1.85;;
23745;SDS011;12053;48.878;9.632;2022-08-23T10:17:26;7.00;;;1.83;;
23745;SDS011;12053;48.878;9.632;2022-08-23T10:20:03;5.60;;;1.95;;
23745;SDS011;12053;48.878;9.632;2022-08-23T10:23:03;3.28;;;1.75;;
23745;SDS011;12053;48.878;9.632;2022-08-23T10:25:28;6.18;;;1.98;;
23745;SDS011;12053;48.878;9.632;2022-08-23T10:30:47;8.68;;;2.20;;
23745;SDS011;12053;48.878;9.632;2022-08-23T10:33:41;3.10;;;1.65;;
23745;SDS011;12053;48.878;9.632;2022-08-23T10:38:41;3.40;;;1.92;;
23745;SDS011;12053;48.878;9.632;2022-08-23T10:46:30;2.90;;;2.08;;
23745;SDS011;12053;48.878;9.632;2022-08-23T10:49:02;3.20;;;1.63;;
23745;SDS011;12053;48.878;9.632;2022-08-23T10:51:33;3.75;;;1.70;;
23745;SDS011;12053;48.878;9.632;2022-08-23T10:54:09;5.72;;;1.95;;
23745;SDS011;12053;48.878;9.632;2022-08-23T10:56:41;2.05;;;1.70;;
23745;SDS011;12053;48.878;9.632;2022-08-23T10:59:17;6.25;;;1.90;;
23745;SDS011;12053;48.878;9.632;2022-08-23T11:04:25;3.38;;;1.80;;
23745;SDS011;12053;48.878;9.632;2022-08-23T11:06:53;2.85;;;1.60;;
23745;SDS011;12053;48.878;9.632;2022-08-23T11:14:38;2.70;;;1.80;;
23745;SDS011;12053;48.878;9.632;2022-08-23T11:17:08;7.18;;;2.10;;
23745;SDS011;12053;48.878;9.632;2022-08-23T11:24:53;6.93;;;2.17;;
23745;SDS011;12053;48.878;9.632;2022-08-23T11:27:25;2.80;;;1.73;;
23745;SDS011;12053;48.878;9.632;2022-08-23T11:29:52;3.47;;;1.70;;
23745;SDS011;12053;48.878;9.632;2022-08-23T11:32:22;4.05;;;2.00;;
23745;SDS011;12053;48.878;9.632;2022-08-23T11:34:58;3.53;;;1.40;;
23745;SDS011;12053;48.878;9.632;2022-08-23T11:37:46;1.73;;;1.40;;
23745;SDS011;12053;48.878;9.632;2022-08-23T11:40:15;2.13;;;1.85;;
23745;SDS011;12053;48.878;9.632;2022-08-23T11:43:12;4.40;;;1.85;;
23745;SDS011;12053;48.878;9.632;2022-08-23T11:45:46;5.25;;;1.83;;
23745;SDS011;12053;48.878;9.632;2022-08-23T11:48:15;4.15;;;1.60;;
23745;SDS011;12053;48.878;9.632;2022-08-23T11:50:51;2.83;;;1.52;;
23745;SDS011;12053;48.878;9.632;2022-08-23T11:58:20;3.53;;;1.70;;
23745;SDS011;12053;48.878;9.632;2022-08-23T12:11:11;2.85;;;1.80;;
23745;SDS011;12053;48.878;9.632;2022-08-23T12:13:50;4.22;;;1.70;;
23745;SDS011;12053;48.878;9.632;2022-08-23T12:21:16;3.65;;;1.48;;
23745;SDS011;12053;48.878;9.632;2022-08-23T12:23:50;2.78;;;1.98;;
23745;SDS011;12053;48.878;9.632;2022-08-23T12:26:28;3.90;;;2.00;;
23745;SDS011;12053;48.878;9.632;2022-08-23T12:29:20;1.92;;;1.73;;
23745;SDS011;12053;48.878;9.632;2022-08-23T12:34:33;2.78;;;1.60;;
23745;SDS011;12053;48.878;9.632;2022-08-23T12:37:13;5.38;;;1.77;;
23745;SDS011;12053;48.878;9.632;2022-08-23T12:39:55;3.58;;;1.80;;
23745;SDS011;12053;48.878;9.632;2022-08-23T12:42:24;3.30;;;1.83;;
23745;SDS011;12053;48.878;9.632;2022-08-23T12:44:59;4.57;;;2.08;;
23745;SDS011;12053;48.878;9.632;2022-08-23T12:47:27;2.03;;;1.77;;
23745;SDS011;12053;48.878;9.632;2022-08-23T12:49:55;5.85;;;1.95;;
23745;SDS011;12053;48.878;9.632;2022-08-23T12:52:30;4.15;;;1.65;;
23745;SDS011;12053;48.878;9.632;2022-08-23T12:54:57;3.25;;;1.80;;
23745;SDS011;12053;48.878;9.632;2022-08-23T12:57:35;7.35;;;1.70;;
23745;SDS011;12053;48.878;9.632;2022-08-23T13:00:09;3.17;;;2.00;;
23745;SDS011;12053;48.878;9.632;2022-08-23T13:02:45;4.13;;;1.80;;
23745;SDS011;12053;48.878;9.632;2022-08-23T13:05:18;3.45;;;2.05;;
23745;SDS011;12053;48.878;9.632;2022-08-23T13:07:47;3.58;;;2.15;;
23745;SDS011;12053;48.878;9.632;2022-08-23T13:10:16;6.82;;;2.08;;
23745;SDS011;12053;48.878;9.632;2022-08-23T13:12:43;2.17;;;1.80;;
23745;SDS011;12053;48.878;9.632;2022-08-23T13:15:11;2.83;;;1.70;;
23745;SDS011;12053;48.878;9.632;2022-08-23T13:17:59;4.85;;;1.90;;
23745;SDS011;12053;48.878;9.632;2022-08-23T13:20:27;3.72;;;2.00;;
23745;SDS011;12053;48.878;9.632;2022-08-23T13:22:55;2.00;;;1.65;;
23745;SDS011;12053;48.878;9.632;2022-08-23T13:25:24;2.53;;;2.00;;
23745;SDS011;12053;48.878;9.632;2022-08-23T13:27:58;5.50;;;1.90;;
23745;SDS011;12053;48.878;9.632;2022-08-23T13:30:30;3.42;;;1.73;;
23745;SDS011;12053;48.878;9.632;2022-08-23T13:35:35;2.47;;;1.90;;
23745;SDS011;12053;48.878;9.632;2022-08-23T13:40:48;3.75;;;1.90;;
23745;SDS011;12053;48.878;9.632;2022-08-23T13:43:19;4.10;;;1.52;;
23745;SDS011;12053;48.878;9.632;2022-08-23T13:45:48;5.05;;;2.22;;
23745;SDS011;12053;48.878;9.632;2022-08-23T13:48:19;4.18;;;1.90;;
23745;SDS011;12053;48.878;9.632;2022-08-23T13:50:46;2.88;;;1.80;;
23745;SDS011;12053;48.878;9.632;2022-08-23T13:53:13;4.30;;;2.13;;
23745;SDS011;12053;48.878;9.632;2022-08-23T13:55:45;3.65;;;1.88;;
23745;SDS011;12053;48.878;9.632;2022-08-23T13:58:16;3.45;;;1.90;;
23745;SDS011;12053;48.878;9.632;2022-08-23T14:00:50;1.73;;;1.40;;
23745;SDS011;12053;48.878;9.632;2022-08-23T14:03:21;2.90;;;1.92;;
23745;SDS011;12053;48.878;9.632;2022-08-23T14:05:48;6.82;;;1.80;;
23745;SDS011;12053;48.878;9.632;2022-08-23T14:08:16;7.25;;;2.22;;
23745;SDS011;12053;48.878;9.632;2022-08-23T14:10:43;3.75;;;2.97;;
23745;SDS011;12053;48.878;9.632;2022-08-23T14:13:12;4.32;;;1.65;;
23745;SDS011;12053;48.878;9.632;2022-08-23T14:15:40;3.25;;;1.60;;
23745;SDS011;12053;48.878;9.632;2022-08-23T14:18:28;3.90;;;2.15;;
23745;SDS011;12053;48.878;9.632;2022-08-23T14:20:55;7.00;;;2.08;;
23745;SDS011;12053;48.878;9.632;2022-08-23T14:23:22;2.58;;;1.80;;
23745;SDS011;12053;48.878;9.632;2022-08-23T14:25:50;5.38;;;1.90;;
23745;SDS011;12053;48.878;9.632;2022-08-23T14:28:20;3.83;;;1.75;;
23745;SDS011;12053;48.878;9.632;2022-08-23T14:30:49;4.03;;;2.40;;
23745;SDS011;12053;48.878;9.632;2022-08-23T14:33:16;3.00;;;1.95;;
23745;SDS011;12053;48.878;9.632;2022-08-23T14:35:47;6.45;;;2.00;;
23745;SDS011;12053;48.878;9.632;2022-08-23T14:38:14;3.10;;;1.55;;
23745;SDS011;12053;48.878;9.632;2022-08-23T14:40:45;4.90;;;1.60;;
23745;SDS011;12053;48.878;9.632;2022-08-23T14:43:16;4.72;;;1.80;;
23745;SDS011;12053;48.878;9.632;2022-08-23T14:45:43;3.53;;;1.58;;
23745;SDS011;12053;48.878;9.632;2022-08-23T14:48:10;4.93;;;1.80;;
23745;SDS011;12053;48.878;9.632;2022-08-23T14:50:38;4.30;;;2.00;;
23745;SDS011;12053;48.878;9.632;2022-08-23T14:53:06;5.50;;;1.98;;
23745;SDS011;12053;48.878;9.632;2022-08-23T14:55:34;3.85;;;1.60;;
23745;SDS011;12053;48.878;9.632;2022-08-23T14:58:01;4.00;;;1.63;;
23745;SDS011;12053;48.878;9.632;2022-08-23T15:00:30;6.00;;;2.13;;
23745;SDS011;12053;48.878;9.632;2022-08-23T15:02:57;3.88;;;2.10;;
23745;SDS011;12053;48.878;9.632;2022-08-23T15:05:24;5.78;;;1.80;;
23745;SDS011;12053;48.878;9.632;2022-08-23T15:07:51;5.75;;;1.70;;
23745;SDS011;12053;48.878;9.632;2022-08-23T15:10:18;3.85;;;1.70;;
23745;SDS011;12053;48.878;9.632;2022-08-23T15:13:06;4.53;;;1.92;;
23745;SDS011;12053;48.878;9.632;2022-08-23T15:15:53;6.00;;;1.67;;
23745;SDS011;12053;48.878;9.632;2022-08-23T15:18:20;4.55;;;1.92;;
23745;SDS011;12053;48.878;9.632;2022-08-23T15:20:47;2.92;;;1.75;;
23745;SDS011;12053;48.878;9.632;2022-08-23T15:23:17;2.78;;;1.70;;
23745;SDS011;12053;48.878;9.632;2022-08-23T15:25:45;3.50;;;1.98;;
23745;SDS011;12053;48.878;9.632;2022-08-23T15:28:12;3.47;;;1.98;;
23745;SDS011;12053;48.878;9.632;2022-08-23T15:30:41;6.25;;;1.92;;
23745;SDS011;12053;48.878;9.632;2022-08-23T15:33:08;2.83;;;1.60;;
23745;SDS011;12053;48.878;9.632;2022-08-23T15:35:47;3.47;;;1.67;;
23745;SDS011;12053;48.878;9.632;2022-08-23T15:38:17;8.48;;;2.20;;
23745;SDS011;12053;48.878;9.632;2022-08-23T15:40:44;5.68;;;1.80;;
23745;SDS011;12053;48.878;9.632;2022-08-23T15:43:12;2.90;;;1.92;;
23745;SDS011;12053;48.878;9.632;2022-08-23T15:45:39;3.75;;;1.60;;
23745;SDS011;12053;48.878;9.632;2022-08-23T15:48:26;6.03;;;1.83;;
23745;SDS011;12053;48.878;9.632;2022-08-23T15:50:55;7.10;;;1.73;;
23745;SDS011;12053;48.878;9.632;2022-08-23T15:53:23;3.97;;;2.15;;
23745;SDS011;12053;48.878;9.632;2022-08-23T15:55:50;6.22;;;2.15;;
23745;SDS011;12053;48.878;9.632;2022-08-23T15:58:20;3.50;;;1.65;;
23745;SDS011;12053;48.878;9.632;2022-08-23T16:00:47;5.75;;;1.60;;
23745;SDS011;12053;48.878;9.632;2022-08-23T16:03:15;2.08;;;1.60;;
23745;SDS011;12053;48.878;9.632;2022-08-23T16:05:46;5.00;;;1.77;;
23745;SDS011;12053;48.878;9.632;2022-08-23T16:08:18;5.38;;;2.00;;
23745;SDS011;12053;48.878;9.632;2022-08-23T16:10:46;3.60;;;1.85;;
23745;SDS011;12053;48.878;9.632;2022-08-23T16:13:13;2.97;;;1.90;;
23745;SDS011;12053;48.878;9.632;2022-08-23T16:15:41;4.78;;;1.83;;
23745;SDS011;12053;48.878;9.632;2022-08-23T16:18:08;6.32;;;2.33;;
23745;SDS011;12053;48.878;9.632;2022-08-23T16:20:35;4.25;;;1.85;;